createdAt,value
2017-11-04T00:00:08.729Z,30.92
2017-11-04T00:02:38.208Z,32.33
2017-11-04T00:05:06.058Z,34.85
2017-11-04T00:07:34.801Z,31.30
2017-11-04T00:10:02.832Z,33.15
2017-11-04T00:12:31.868Z,31.95
2017-11-04T00:14:59.328Z,35.28
2017-11-04T00:17:27.068Z,35.17
2017-11-04T00:19:55.277Z,32.88
2017-11-04T00:22:24.036Z,29.75
2017-11-04T00:24:51.480Z,32.40
2017-11-04T00:27:19.026Z,29.15
2017-11-04T00:29:46.460Z,32.08
2017-11-04T00:32:13.928Z,35.30
2017-11-04T00:34:41.489Z,34.95
2017-11-04T00:37:12.597Z,31.80
2017-11-04T00:39:40.040Z,34.17
2017-11-04T00:42:07.503Z,32.08
2017-11-04T00:44:34.939Z,30.40
2017-11-04T00:47:03.192Z,30.65
2017-11-04T00:49:31.494Z,37.35
2017-11-04T00:52:01.727Z,35.15
2017-11-04T00:54:29.175Z,31.67
2017-11-04T00:56:58.361Z,32.05
2017-11-04T00:59:27.004Z,35.05
2017-11-04T01:02:05.248Z,31.27
2017-11-04T01:04:33.043Z,31.62
2017-11-04T01:07:04.172Z,30.42
2017-11-04T01:09:34.358Z,32.72
2017-11-04T01:12:03.316Z,35.38
2017-11-04T01:14:30.911Z,31.50
2017-11-04T01:16:58.621Z,33.75
2017-11-04T01:19:27.929Z,32.05
2017-11-04T01:21:57.116Z,37.25
2017-11-04T01:24:24.584Z,33.00
2017-11-04T01:26:54.988Z,35.05
2017-11-04T01:29:22.417Z,38.63
2017-11-04T01:31:50.501Z,43.72
2017-11-04T01:34:17.944Z,40.63
2017-11-04T01:36:45.427Z,39.63
2017-11-04T01:39:13.424Z,37.00
2017-11-04T01:41:40.862Z,40.15
2017-11-04T01:44:10.092Z,33.33
2017-11-04T01:46:37.549Z,34.50
2017-11-04T01:49:07.281Z,33.08
2017-11-04T01:51:34.753Z,37.90
2017-11-04T01:54:02.401Z,31.92
2017-11-04T01:56:29.838Z,33.03
2017-11-04T01:59:01.632Z,34.58
2017-11-04T02:01:30.244Z,34.78
2017-11-04T02:03:58.902Z,38.03
2017-11-04T02:06:27.946Z,34.80
2017-11-04T02:08:56.209Z,35.22
2017-11-04T02:11:23.668Z,35.05
2017-11-04T02:13:51.795Z,34.95
2017-11-04T02:16:21.044Z,33.20
2017-11-04T02:18:49.261Z,32.35
2017-11-04T02:21:18.263Z,34.67
2017-11-04T02:23:46.324Z,33.10
2017-11-04T02:26:14.692Z,28.85
2017-11-04T02:28:44.873Z,33.22
2017-11-04T02:31:15.013Z,36.40
2017-11-04T02:33:43.893Z,32.92
2017-11-04T02:36:12.203Z,35.40
2017-11-04T02:38:43.140Z,29.10
2017-11-04T02:41:13.924Z,32.63
2017-11-04T02:43:41.399Z,31.67
2017-11-04T02:46:10.200Z,29.73
2017-11-04T02:48:38.434Z,30.37
2017-11-04T02:51:07.260Z,33.25
2017-11-04T02:53:34.703Z,30.92
2017-11-04T02:56:03.172Z,30.08
2017-11-04T02:58:32.287Z,33.60
2017-11-04T03:00:59.728Z,31.55
2017-11-04T03:03:27.188Z,29.60
2017-11-04T03:05:56.375Z,33.20
2017-11-04T03:08:23.836Z,29.70
2017-11-04T03:10:51.296Z,33.55
2017-11-04T03:13:20.414Z,29.37
2017-11-04T03:15:48.675Z,35.63
2017-11-04T03:18:17.109Z,30.20
2017-11-04T03:20:46.271Z,30.12
2017-11-04T03:23:16.074Z,34.00
2017-11-04T03:25:43.532Z,33.58
2017-11-04T03:28:12.738Z,36.67
2017-11-04T03:30:41.800Z,35.60
2017-11-04T03:33:13.472Z,35.20
2017-11-04T03:35:41.786Z,34.13
2017-11-04T03:38:10.875Z,30.35
2017-11-04T03:40:38.293Z,33.42
2017-11-04T03:43:07.912Z,33.58
2017-11-04T03:45:35.347Z,34.42
2017-11-04T03:48:04.003Z,32.70
2017-11-04T03:50:34.459Z,35.05
2017-11-04T03:53:02.759Z,38.30
2017-11-04T03:55:30.215Z,37.10
2017-11-04T03:57:58.381Z,36.65
2017-11-04T04:00:26.624Z,36.17
2017-11-04T04:02:54.077Z,34.75
2017-11-04T04:05:22.292Z,33.88
2017-11-04T04:07:49.731Z,37.67
2017-11-04T04:10:17.958Z,34.38
2017-11-04T04:12:45.398Z,31.08
2017-11-04T04:15:13.629Z,34.65
2017-11-04T04:17:41.075Z,36.45
2017-11-04T04:20:09.843Z,34.85
2017-11-04T04:22:38.894Z,35.50
2017-11-04T04:25:10.097Z,30.70
2017-11-04T04:27:37.564Z,29.45
2017-11-04T04:30:05.533Z,31.55
2017-11-04T04:32:32.984Z,28.83
2017-11-04T04:35:07.433Z,35.53
2017-11-04T04:37:34.883Z,33.10
2017-11-04T04:40:04.893Z,31.00
2017-11-04T04:45:07.385Z,28.38
2017-11-04T04:47:36.341Z,32.35
2017-11-04T04:50:04.558Z,28.55
2017-11-04T04:52:35.760Z,27.62
2017-11-04T04:55:03.214Z,25.65
2017-11-04T04:57:31.226Z,30.30
2017-11-04T04:59:58.683Z,29.85
2017-11-04T05:02:27.993Z,33.03
2017-11-04T05:04:56.056Z,26.50
2017-11-04T05:07:23.497Z,29.80
2017-11-04T05:09:50.977Z,32.88
2017-11-04T05:12:18.425Z,28.25
2017-11-04T05:14:46.787Z,29.12
2017-11-04T05:17:14.245Z,36.08
2017-11-04T05:19:43.296Z,31.40
2017-11-04T05:22:10.751Z,31.33
2017-11-04T05:24:39.272Z,28.87
2017-11-04T05:27:06.728Z,33.10
2017-11-04T05:29:34.953Z,30.20
2017-11-04T05:32:02.400Z,32.22
2017-11-04T05:34:30.677Z,30.23
2017-11-04T05:36:59.116Z,26.90
2017-11-04T05:39:28.084Z,36.55
2017-11-04T05:41:55.523Z,33.92
2017-11-04T05:44:24.699Z,29.98
2017-11-04T05:46:52.986Z,30.00
2017-11-04T05:49:21.023Z,33.13
2017-11-04T05:51:49.240Z,39.05
2017-11-04T05:54:19.216Z,31.02
2017-11-04T05:56:46.774Z,31.23
2017-11-04T05:59:17.096Z,31.50
2017-11-04T06:01:44.998Z,31.77
2017-11-04T06:04:12.499Z,33.22
2017-11-04T06:06:40.048Z,35.95
2017-11-04T06:09:07.489Z,37.53
2017-11-04T06:11:39.453Z,33.63
2017-11-04T06:14:06.892Z,34.20
2017-11-04T06:16:35.209Z,31.98
2017-11-04T06:19:02.648Z,37.58
2017-11-04T06:21:32.109Z,33.33
2017-11-04T06:23:59.761Z,38.75
2017-11-04T06:26:27.273Z,33.47
2017-11-04T06:28:55.504Z,33.42
2017-11-04T06:31:22.949Z,35.05
2017-11-04T06:33:51.185Z,31.62
2017-11-04T06:36:20.149Z,34.05
2017-11-04T06:38:48.392Z,38.03
2017-11-04T06:41:17.582Z,33.78
2017-11-04T06:43:47.118Z,36.22
2017-11-04T06:46:15.424Z,41.15
2017-11-04T06:48:42.884Z,35.55
2017-11-04T06:51:10.321Z,35.25
2017-11-04T06:53:39.345Z,32.42
2017-11-04T06:56:06.808Z,31.73
2017-11-04T06:58:37.469Z,32.35
2017-11-04T07:01:07.798Z,35.38
2017-11-04T07:03:36.062Z,32.10
2017-11-04T07:06:04.432Z,34.55
2017-11-04T07:08:34.474Z,33.42
2017-11-04T07:11:01.945Z,31.80
2017-11-04T07:13:30.975Z,31.08
2017-11-04T07:15:59.844Z,35.78
2017-11-04T07:18:30.128Z,28.65
2017-11-04T07:20:58.102Z,28.12
2017-11-04T07:23:26.299Z,29.70
2017-11-04T07:25:53.740Z,31.50
2017-11-04T07:28:21.967Z,29.10
2017-11-04T07:30:49.411Z,29.48
2017-11-04T07:33:17.545Z,31.50
2017-11-04T07:35:45.005Z,34.10
2017-11-04T07:38:16.056Z,26.95
2017-11-04T07:40:43.545Z,29.70
2017-11-04T07:43:11.591Z,29.50
2017-11-04T07:45:39.061Z,35.92
2017-11-04T07:48:07.365Z,32.42
2017-11-04T07:50:35.999Z,27.25
2017-11-04T07:53:05.378Z,27.30
2017-11-04T07:55:35.726Z,23.67
2017-11-04T07:58:06.719Z,28.17
2017-11-04T08:00:34.713Z,24.70
2017-11-04T08:03:03.169Z,27.62
2017-11-04T08:05:30.636Z,28.55
2017-11-04T08:07:58.934Z,26.00
2017-11-04T08:10:26.407Z,31.87
2017-11-04T08:12:55.307Z,25.92
2017-11-04T08:15:25.492Z,36.53
2017-11-04T08:17:53.750Z,33.47
2017-11-04T08:20:21.185Z,30.42
2017-11-04T08:22:49.477Z,30.42
2017-11-04T08:25:18.246Z,32.88
2017-11-04T08:27:46.447Z,37.70
2017-11-04T08:30:16.030Z,32.55
2017-11-04T08:32:43.490Z,35.90
2017-11-04T08:35:13.023Z,35.03
2017-11-04T08:37:40.489Z,44.17
2017-11-04T08:40:07.945Z,34.47
2017-11-04T08:42:35.421Z,32.92
2017-11-04T08:45:04.793Z,47.17
2017-11-04T08:47:32.397Z,44.15
2017-11-04T08:50:01.590Z,43.38
2017-11-04T08:52:29.818Z,36.17
2017-11-04T08:54:59.661Z,48.10
2017-11-04T08:57:27.120Z,37.90
2017-11-04T08:59:56.208Z,39.00
2017-11-04T09:02:24.469Z,65.43
2017-11-04T09:04:52.759Z,40.80
2017-11-04T09:07:20.276Z,37.55
2017-11-04T09:09:47.727Z,48.05
2017-11-04T09:12:15.221Z,39.75
2017-11-04T09:14:44.780Z,37.28
2017-11-04T09:17:19.048Z,38.83
2017-11-04T09:19:46.500Z,33.20
2017-11-04T09:22:13.976Z,31.50
2017-11-04T09:24:41.423Z,32.65
2017-11-04T09:27:10.619Z,36.10
2017-11-04T09:29:40.518Z,36.65
2017-11-04T09:32:11.031Z,35.17
2017-11-04T09:34:41.505Z,35.65
2017-11-04T09:37:09.013Z,38.33
2017-11-04T09:39:36.484Z,37.08
2017-11-04T09:42:03.982Z,86.37
2017-11-04T09:44:32.225Z,60.95
2017-11-04T09:47:00.394Z,44.90
2017-11-04T09:49:28.322Z,38.95
2017-11-04T09:51:55.809Z,43.35
2017-11-04T09:54:23.285Z,50.10
2017-11-04T09:56:52.954Z,57.35
2017-11-04T09:59:20.420Z,58.20
2017-11-04T10:01:48.543Z,46.05
2017-11-04T10:04:15.991Z,56.67
2017-11-04T10:06:44.984Z,62.28
2017-11-04T10:09:17.724Z,50.75
2017-11-04T10:11:45.887Z,51.85
2017-11-04T10:14:13.669Z,65.93
2017-11-04T10:16:41.688Z,39.70
2017-11-04T10:19:12.001Z,41.78
2017-11-04T10:21:40.740Z,38.72
2017-11-04T10:24:08.188Z,36.88
2017-11-04T10:26:36.541Z,33.08
2017-11-04T10:29:05.675Z,31.15
2017-11-04T10:31:34.509Z,37.45
2017-11-04T10:34:05.504Z,32.45
2017-11-04T10:36:34.323Z,60.12
2017-11-04T10:39:05.157Z,35.50
2017-11-04T10:41:32.632Z,44.28
2017-11-04T10:44:01.069Z,42.60
2017-11-04T10:46:28.603Z,46.33
2017-11-04T10:48:56.658Z,41.13
2017-11-04T10:51:24.116Z,40.57
2017-11-04T10:53:51.592Z,54.30
2017-11-04T10:56:19.060Z,37.03
2017-11-04T10:58:49.057Z,36.93
2017-11-04T11:01:16.499Z,34.83
2017-11-04T11:03:45.582Z,32.87
2017-11-04T11:06:13.790Z,48.40
2017-11-04T11:08:42.401Z,39.83
2017-11-04T11:11:09.866Z,31.43
2017-11-04T11:13:37.381Z,35.40
2017-11-04T11:16:04.825Z,32.60
2017-11-04T11:18:32.308Z,42.27
2017-11-04T11:21:02.478Z,36.37
2017-11-04T11:23:29.936Z,31.70
2017-11-04T11:25:58.740Z,48.60
2017-11-04T11:28:28.302Z,48.40
2017-11-04T11:30:57.480Z,184.13
2017-11-04T11:33:26.125Z,114.43
2017-11-04T11:35:55.517Z,39.97
2017-11-04T11:38:23.731Z,123.10
2017-11-04T11:40:53.087Z,43.53
2017-11-04T11:43:20.546Z,60.93
2017-11-04T11:45:54.329Z,82.97
2017-11-04T11:48:21.768Z,48.10
2017-11-04T11:50:51.095Z,84.97
2017-11-04T11:53:19.494Z,51.90
2017-11-04T11:55:50.556Z,43.27
2017-11-04T11:58:18.017Z,42.30
2017-11-04T12:00:46.336Z,44.57
2017-11-04T12:03:13.794Z,60.67
2017-11-04T12:05:42.374Z,57.57
2017-11-04T12:08:09.841Z,43.30
2017-11-04T12:10:42.598Z,54.67
2017-11-04T12:13:10.906Z,44.83
2017-11-04T12:15:40.298Z,51.13
2017-11-04T12:18:08.543Z,49.63
2017-11-04T12:20:38.678Z,45.42
2017-11-04T12:23:06.165Z,43.90
2017-11-04T12:25:33.630Z,46.50
2017-11-04T12:28:01.111Z,55.60
2017-11-04T12:30:29.822Z,52.30
2017-11-04T12:32:59.128Z,52.73
2017-11-04T12:35:26.609Z,56.50
2017-11-04T12:37:55.004Z,49.67
2017-11-04T12:40:22.516Z,65.13
2017-11-04T12:42:51.467Z,47.77
2017-11-04T12:45:18.922Z,46.67
2017-11-04T12:47:48.008Z,46.73
2017-11-04T12:50:16.404Z,46.63
2017-11-04T12:52:45.970Z,46.07
2017-11-04T12:55:15.538Z,70.70
2017-11-04T12:57:42.996Z,71.93
2017-11-04T13:00:11.346Z,64.73
2017-11-04T13:02:39.583Z,48.07
2017-11-04T13:05:07.095Z,50.53
2017-11-04T13:07:35.417Z,50.53
2017-11-04T13:10:02.881Z,50.57
2017-11-04T13:12:36.021Z,47.87
2017-11-04T13:15:03.473Z,51.50
2017-11-04T13:17:30.934Z,50.80
2017-11-04T13:19:59.162Z,54.37
2017-11-04T13:22:26.633Z,54.57
2017-11-04T13:24:54.115Z,56.50
2017-11-04T13:27:22.544Z,52.67
2017-11-04T13:29:50.043Z,47.73
2017-11-04T13:32:19.778Z,50.17
2017-11-04T13:34:48.000Z,51.73
2017-11-04T13:37:17.012Z,47.90
2017-11-04T13:39:45.985Z,53.33
2017-11-04T13:42:14.993Z,52.63
2017-11-04T13:44:43.480Z,56.50
2017-11-04T13:47:12.131Z,57.33
2017-11-04T13:49:39.605Z,57.33
2017-11-04T13:52:09.262Z,57.20
2017-11-04T13:54:37.469Z,52.97
2017-11-04T13:57:08.774Z,53.73
2017-11-04T13:59:37.917Z,52.90
2017-11-04T14:02:08.873Z,59.05
2017-11-04T14:04:38.277Z,54.53
2017-11-04T14:07:10.455Z,57.07
2017-11-04T14:09:37.933Z,56.50
2017-11-04T14:12:08.136Z,58.73
2017-11-04T14:14:35.856Z,54.05
2017-11-04T14:17:11.383Z,54.88
2017-11-04T14:19:40.476Z,60.15
2017-11-04T14:22:10.146Z,52.53
2017-11-04T14:24:37.645Z,61.73
2017-11-04T14:27:05.108Z,59.58
2017-11-04T14:29:34.100Z,51.90
2017-11-04T14:32:02.156Z,53.00
2017-11-04T14:34:30.366Z,52.60
2017-11-04T14:36:57.843Z,51.35
2017-11-04T14:39:25.297Z,54.77
2017-11-04T14:41:53.552Z,55.30
2017-11-04T14:44:23.955Z,54.83
2017-11-04T14:46:51.536Z,57.30
2017-11-04T14:49:19.036Z,57.47
2017-11-04T14:51:46.559Z,53.37
2017-11-04T14:54:15.388Z,55.63
2017-11-04T14:56:43.681Z,104.77
2017-11-04T14:59:11.160Z,76.80
2017-11-04T15:01:41.323Z,135.90
2017-11-04T15:04:09.589Z,76.17
2017-11-04T15:06:37.137Z,95.47
2017-11-04T15:09:05.405Z,80.23
2017-11-04T15:11:34.107Z,57.83
2017-11-04T15:14:01.585Z,85.90
2017-11-04T15:16:29.942Z,75.03
2017-11-04T15:18:57.760Z,69.00
2017-11-04T15:21:26.199Z,72.30
2017-11-04T15:23:57.452Z,62.43
2017-11-04T15:26:25.706Z,56.03
2017-11-04T15:28:54.565Z,70.20
2017-11-04T15:31:22.063Z,59.07
2017-11-04T15:33:49.576Z,55.67
2017-11-04T15:36:17.068Z,58.27
2017-11-04T15:38:44.559Z,58.87
2017-11-04T15:41:13.579Z,56.43
2017-11-04T15:43:41.176Z,49.77
2017-11-04T15:46:08.654Z,53.37
2017-11-04T15:48:36.645Z,56.57
2017-11-04T15:51:04.928Z,54.30
2017-11-04T15:53:32.402Z,51.70
2017-11-04T15:56:00.504Z,51.63
2017-11-04T15:58:28.066Z,49.57
2017-11-04T16:00:56.270Z,53.23
2017-11-04T16:03:23.828Z,51.43
2017-11-04T16:05:52.256Z,52.80
2017-11-04T16:08:19.810Z,55.95
2017-11-04T16:10:49.602Z,58.90
2017-11-04T16:13:17.938Z,48.60
2017-11-04T16:15:48.120Z,52.87
2017-11-04T16:18:17.397Z,58.17
2017-11-04T16:20:48.413Z,57.30
2017-11-04T16:23:20.685Z,55.05
2017-11-04T16:25:48.499Z,56.83
2017-11-04T16:28:16.781Z,50.47
2017-11-04T16:30:44.274Z,62.85
2017-11-04T16:33:11.748Z,59.53
2017-11-04T16:35:39.204Z,60.85
2017-11-04T16:38:08.909Z,49.22
2017-11-04T16:40:37.232Z,54.45
2017-11-04T16:43:05.896Z,55.65
2017-11-04T16:45:33.367Z,55.95
2017-11-04T16:48:01.414Z,56.40
2017-11-04T16:50:28.984Z,62.20
2017-11-04T16:52:56.476Z,54.58
2017-11-04T16:55:23.958Z,59.88
2017-11-04T16:57:55.815Z,54.58
2017-11-04T17:00:23.299Z,52.70
2017-11-04T17:02:50.828Z,55.70
2017-11-04T17:05:19.109Z,54.88
2017-11-04T17:07:46.568Z,55.55
2017-11-04T17:10:14.047Z,49.60
2017-11-04T17:12:42.457Z,57.35
2017-11-04T17:15:10.765Z,56.35
2017-11-04T17:17:38.989Z,56.70
2017-11-04T17:20:07.849Z,55.45
2017-11-04T17:22:36.253Z,48.70
2017-11-04T17:25:05.360Z,54.35
2017-11-04T17:27:32.872Z,54.60
2017-11-04T17:30:00.357Z,44.42
2017-11-04T17:32:27.881Z,54.30
2017-11-04T17:34:55.353Z,59.00
2017-11-04T17:37:23.795Z,54.63
2017-11-04T17:39:52.016Z,55.90
2017-11-04T17:42:25.001Z,55.20
2017-11-04T17:44:55.992Z,52.65
2017-11-04T17:47:23.459Z,59.78
2017-11-04T17:49:51.859Z,56.78
2017-11-04T17:52:23.565Z,56.58
2017-11-04T17:54:51.903Z,54.25
2017-11-04T17:57:19.429Z,56.17
2017-11-04T17:59:46.912Z,50.60
2017-11-04T18:02:18.549Z,52.95
2017-11-04T18:04:46.018Z,49.25
2017-11-04T18:07:13.513Z,57.83
2017-11-04T18:09:41.043Z,52.08
2017-11-04T18:12:08.550Z,52.03
2017-11-04T18:14:37.654Z,47.92
2017-11-04T18:17:05.600Z,45.25
2017-11-04T18:19:34.528Z,49.92
2017-11-04T18:22:02.021Z,51.00
2017-11-04T18:24:30.581Z,53.75
2017-11-04T18:26:58.896Z,50.20
2017-11-04T18:29:26.380Z,55.15
2017-11-04T18:31:54.620Z,51.37
2017-11-04T18:34:22.128Z,53.25
2017-11-04T18:36:49.580Z,54.47
2017-11-04T18:39:17.964Z,51.90
2017-11-04T18:41:45.496Z,53.90
2017-11-04T18:44:18.019Z,53.38
2017-11-04T18:46:45.453Z,49.63
2017-11-04T18:49:12.932Z,54.40
2017-11-04T18:51:40.524Z,51.67
2017-11-04T18:54:09.033Z,50.45
2017-11-04T18:56:39.367Z,46.22
2017-11-04T18:59:06.858Z,52.00
2017-11-04T19:01:35.091Z,48.83
2017-11-04T19:04:02.711Z,52.83
2017-11-04T19:06:32.127Z,51.17
2017-11-04T19:08:59.586Z,51.03
2017-11-04T19:11:28.585Z,49.80
2017-11-04T19:13:56.068Z,62.55
2017-11-04T19:16:23.542Z,52.80
2017-11-04T19:18:51.145Z,54.70
2017-11-04T19:21:19.785Z,50.58
2017-11-04T19:23:47.260Z,54.88
2017-11-04T19:26:15.101Z,59.63
2017-11-04T19:31:16.560Z,54.13
2017-11-04T19:33:44.796Z,51.60
2017-11-04T19:36:12.860Z,51.08
2017-11-04T19:38:40.317Z,52.45
2017-11-04T19:41:12.425Z,57.00
2017-11-04T19:43:39.864Z,55.10
2017-11-04T19:46:08.861Z,52.20
2017-11-04T19:48:36.331Z,59.83
2017-11-04T19:51:05.792Z,59.58
2017-11-04T19:53:33.756Z,57.97
2017-11-04T19:56:01.216Z,48.60
2017-11-04T19:58:28.710Z,52.55
2017-11-04T20:00:58.177Z,49.85
2017-11-04T20:03:28.501Z,57.03
2017-11-04T20:05:55.988Z,51.20
2017-11-04T20:08:23.502Z,56.20
2017-11-04T20:10:50.964Z,49.03
2017-11-04T20:13:19.765Z,50.22
2017-11-04T20:15:47.263Z,50.75
2017-11-04T20:18:15.975Z,55.80
2017-11-04T20:20:43.436Z,57.50
2017-11-04T20:23:11.704Z,54.67
2017-11-04T20:25:39.167Z,57.22
2017-11-04T20:28:08.864Z,55.00
2017-11-04T20:30:41.333Z,61.58
2017-11-04T20:33:09.509Z,53.85
2017-11-04T20:35:36.961Z,55.05
2017-11-04T20:38:05.458Z,57.90
2017-11-04T20:40:33.753Z,56.88
2017-11-04T20:43:01.224Z,63.72
2017-11-04T20:45:30.024Z,56.63
2017-11-04T20:47:57.514Z,61.05
2017-11-04T20:50:24.989Z,56.00
2017-11-04T20:52:53.425Z,56.17
2017-11-04T20:55:21.675Z,47.97
2017-11-04T20:57:49.192Z,44.97
2017-11-04T21:00:17.440Z,52.97
2017-11-04T21:02:44.916Z,45.45
2017-11-04T21:05:12.404Z,44.75
2017-11-04T21:07:39.865Z,44.95
2017-11-04T21:10:07.338Z,50.05
2017-11-04T21:12:34.813Z,45.88
2017-11-04T21:15:02.344Z,43.83
2017-11-04T21:17:30.568Z,56.42
2017-11-04T21:19:58.037Z,54.55
2017-11-04T21:22:25.557Z,49.65
2017-11-04T21:24:53.053Z,43.95
2017-11-04T21:27:20.543Z,45.92
2017-11-04T21:29:48.058Z,41.90
2017-11-04T21:32:15.545Z,47.45
2017-11-04T21:34:43.016Z,43.22
2017-11-04T21:37:10.502Z,40.55
2017-11-04T21:39:37.978Z,44.42
2017-11-04T21:42:05.469Z,47.05
2017-11-04T21:44:32.993Z,44.33
2017-11-04T21:47:00.456Z,50.60
2017-11-04T21:49:28.039Z,45.95
2017-11-04T21:51:55.537Z,46.30
2017-11-04T21:54:23.061Z,43.17
2017-11-04T21:56:51.328Z,45.03
2017-11-04T21:59:18.824Z,45.10
2017-11-04T22:01:46.311Z,50.45
2017-11-04T22:04:13.892Z,61.97
2017-11-04T22:06:41.529Z,72.40
2017-11-04T22:09:09.051Z,48.60
2017-11-04T22:11:36.825Z,40.78
2017-11-04T22:14:05.171Z,43.20
2017-11-04T22:16:32.689Z,39.55
2017-11-04T22:19:00.243Z,41.10
2017-11-04T22:21:27.709Z,37.65
2017-11-04T22:23:55.199Z,39.17
2017-11-04T22:26:23.424Z,42.45
2017-11-04T22:28:51.665Z,37.25
2017-11-04T22:31:19.132Z,45.35
2017-11-04T22:33:46.631Z,35.95
2017-11-04T22:36:14.114Z,37.38
2017-11-04T22:38:41.644Z,38.90
2017-11-04T22:41:09.593Z,40.30
2017-11-04T22:43:37.153Z,35.15
2017-11-04T22:46:04.623Z,37.15
2017-11-04T22:48:32.129Z,44.72
2017-11-04T22:51:01.781Z,40.33
2017-11-04T22:53:29.264Z,48.47
2017-11-04T22:55:57.315Z,47.90
2017-11-04T22:58:26.325Z,49.17
2017-11-04T23:00:55.154Z,52.65
2017-11-04T23:03:23.480Z,46.33
2017-11-04T23:05:51.896Z,49.95
2017-11-04T23:08:19.361Z,46.80
2017-11-04T23:10:46.847Z,48.30
2017-11-04T23:13:14.721Z,47.55
2017-11-04T23:15:42.169Z,45.72
2017-11-04T23:18:09.659Z,46.15
2017-11-04T23:20:37.135Z,46.97
2017-11-04T23:23:05.228Z,49.53
2017-11-04T23:25:32.709Z,50.33
2017-11-04T23:28:01.136Z,46.63
2017-11-04T23:30:29.377Z,46.33
2017-11-04T23:32:56.840Z,44.63
2017-11-04T23:35:24.402Z,45.90
2017-11-04T23:37:52.739Z,47.25
2017-11-04T23:40:20.200Z,43.42
2017-11-04T23:42:49.699Z,45.83
2017-11-04T23:45:20.224Z,46.95
2017-11-04T23:47:47.759Z,44.92
2017-11-04T23:50:15.468Z,38.50
2017-11-04T23:52:43.300Z,44.90
2017-11-04T23:55:13.261Z,46.42
2017-11-04T23:57:42.492Z,41.63
